Time;durP1;ratioP1;P1;durP2;ratioP2;P2;SDS_P1;SDS_P2;PMS_P1;PMS_P2;Temp;Humidity;BMP_temperature;BMP_pressure;BME280_temperature;BME280_humidity;BME280_pressure;Samples;Min_cycle;Max_cycle;Signal;HPM_P1;HPM_P2
2022/08/20 00:01:03;;;;;;;22.90;9.30;;;;;;;26.10;68.68;97586.81;4425616;32;20172;-78
2022/08/20 00:03:33;;;;;;;22.90;9.00;;;;;;;26.04;69.53;97572.47;4425217;32;20123;-78
2022/08/20 00:06:08;;;;;;;18.37;8.68;;;;;;;26.75;66.29;97581.06;4425653;32;20420;-78
2022/08/20 00:08:36;;;;;;;16.80;8.98;;;;;;;26.46;67.89;97577.34;4425529;32;20436;-78
2022/08/20 00:11:06;;;;;;;21.00;9.02;;;;;;;26.17;69.69;97558.69;4425155;32;20169;-78
2022/08/20 00:13:39;;;;;;;17.52;8.95;;;;;;;26.15;69.00;97542.16;4425523;32;20522;-78
2022/08/20 00:16:06;;;;;;;18.75;8.45;;;;;;;25.68;71.78;97543.06;4425362;32;20157;-78
2022/08/20 00:18:35;;;;;;;16.40;6.55;;;;;;;24.42;77.39;97532.28;4425318;32;20158;-78
2022/08/20 00:21:05;;;;;;;18.98;8.80;;;;;;;22.14;87.56;97527.72;4425449;32;20069;-78
2022/08/20 00:23:32;;;;;;;20.25;9.70;;;;;;;21.81;91.88;97535.25;4424974;32;20108;-78
2022/08/20 00:25:59;;;;;;;22.73;8.40;;;;;;;22.21;90.42;97542.72;4424116;32;20372;-78
2022/08/20 00:28:26;;;;;;;22.87;8.50;;;;;;;22.32;89.04;97535.56;4425251;32;20106;-78
2022/08/20 00:30:52;;;;;;;21.15;8.55;;;;;;;22.15;90.44;97516.22;4425312;32;20509;-78
2022/08/20 00:33:21;;;;;;;17.02;8.25;;;;;;;21.73;92.53;97513.31;4425358;32;20162;-78
2022/08/20 00:35:55;;;;;;;20.00;8.25;;;;;;;21.97;90.78;97510.94;4425366;32;20145;-78
2022/08/20 00:38:23;;;;;;;16.80;9.07;;;;;;;21.99;91.50;97503.72;4425067;32;20090;-78
2022/08/20 00:40:56;;;;;;;21.48;8.80;;;;;;;23.13;85.40;97515.13;4425376;32;20429;-77
2022/08/20 00:43:31;;;;;;;18.35;7.82;;;;;;;25.11;76.03;97522.19;4411657;32;20415;-77
2022/08/20 00:46:00;;;;;;;17.48;8.15;;;;;;;25.93;71.46;97520.81;4424975;32;20507;-78
2022/08/20 00:48:31;;;;;;;20.52;8.23;;;;;;;26.00;70.92;97543.91;4425241;32;20141;-78
2022/08/20 00:51:26;;;;;;;19.25;8.02;;;;;;;27.04;65.98;97569.75;4424987;32;20454;-78
2022/08/20 00:53:59;;;;;;;17.75;7.50;;;;;;;26.71;67.91;97564.75;4420034;32;20129;-78
2022/08/20 00:56:26;;;;;;;19.87;7.82;;;;;;;27.08;65.78;97558.62;4411530;32;20110;-78
2022/08/20 00:58:54;;;;;;;18.25;7.85;;;;;;;27.49;64.15;97570.59;4424802;32;20120;-78
2022/08/20 01:01:21;;;;;;;21.55;8.55;;;;;;;27.74;63.62;97569.31;4425110;32;20464;-78
2022/08/20 01:03:49;;;;;;;17.70;7.85;;;;;;;28.12;61.36;97559.34;4425070;32;20125;-78
2022/08/20 01:06:16;;;;;;;20.12;7.55;;;;;;;27.77;62.81;97561.00;4424870;32;20165;-78
2022/08/20 01:08:43;;;;;;;15.68;7.55;;;;;;;27.16;64.60;97562.19;4425146;32;20094;-78
2022/08/20 01:11:20;;;;;;;19.48;8.20;;;;;;;28.09;61.87;97585.44;4425076;32;20078;-78
2022/08/20 01:13:47;;;;;;;16.92;7.87;;;;;;;28.27;61.44;97592.94;4424725;32;20102;-78
2022/08/20 01:16:22;;;;;;;20.48;8.07;;;;;;;27.65;63.02;97603.06;4425048;32;20102;-78
2022/08/20 01:18:50;;;;;;;21.73;7.72;;;;;;;27.45;64.19;97607.25;4411340;32;20150;-78
2022/08/20 01:21:24;;;;;;;23.58;8.68;;;;;;;26.83;66.67;97582.84;4424641;32;20097;-78
2022/08/20 01:24:01;;;;;;;21.70;9.18;;;;;;;26.78;66.72;97607.19;4411715;32;20153;-78
2022/08/20 01:26:36;;;;;;;24.25;8.73;;;;;;;26.49;68.04;97605.28;4410821;32;20460;-78
2022/08/20 01:29:07;;;;;;;26.75;9.68;;;;;;;25.89;71.40;97616.50;4409659;32;20129;-78
2022/08/20 01:31:38;;;;;;;22.92;9.43;;;;;;;26.20;70.65;97621.78;4409584;32;20086;-78
2022/08/20 01:34:08;;;;;;;19.23;8.70;;;;;;;26.96;67.96;97620.94;4409135;32;20098;-78
2022/08/20 01:36:42;;;;;;;23.62;8.77;;;;;;;27.32;65.32;97638.81;4408983;32;20186;-78
2022/08/20 01:39:20;;;;;;;17.77;8.30;;;;;;;27.26;65.96;97626.31;4409336;32;20073;-78
2022/08/20 01:42:06;;;;;;;19.73;9.00;;;;;;;27.01;66.97;97636.25;4409040;32;20133;-78
2022/08/20 01:44:36;;;;;;;21.07;8.80;;;;;;;27.92;64.40;97651.09;4409285;32;20117;-78
2022/08/20 01:47:30;;;;;;;20.33;7.80;;;;;;;28.19;62.56;97661.03;4409162;32;20209;-78
2022/08/20 01:50:17;;;;;;;18.00;8.27;;;;;;;27.55;64.78;97676.69;4409340;32;20090;-78
2022/08/20 01:53:17;;;;;;;23.08;8.85;;;;;;;27.56;65.17;97670.38;4395676;32;20112;-78
2022/08/20 01:55:44;;;;;;;20.35;7.82;;;;;;;27.18;66.12;97669.56;4395076;32;20163;-78
2022/08/20 01:58:11;;;;;;;22.33;8.00;;;;;;;27.63;64.01;97673.91;4409224;32;20173;-78
2022/08/20 02:00:39;;;;;;;20.73;8.60;;;;;;;27.48;64.78;97681.06;4409018;32;20090;-78
2022/08/20 02:03:07;;;;;;;19.08;7.75;;;;;;;27.45;65.42;97678.78;4408798;32;20147;-78
2022/08/20 02:05:34;;;;;;;24.23;8.80;;;;;;;28.16;62.21;97672.00;4408818;32;20166;-78
2022/08/20 02:08:02;;;;;;;16.77;7.75;;;;;;;27.33;65.09;97637.84;4409105;32;20497;-78
2022/08/20 02:10:32;;;;;;;17.62;7.80;;;;;;;26.63;68.16;97636.25;4409082;32;20160;-78
2022/08/20 02:13:00;;;;;;;20.08;8.40;;;;;;;26.66;68.14;97625.31;4408988;32;20098;-78
2022/08/20 02:15:27;;;;;;;18.50;8.70;;;;;;;25.18;74.70;97599.69;4408490;32;20172;-77
2022/08/20 02:18:05;;;;;;;26.12;9.38;;;;;;;26.67;68.66;97597.00;4408897;32;20101;-78
2022/08/20 02:20:35;;;;;;;22.58;9.35;;;;;;;25.81;72.46;97582.16;4409025;32;20086;-77
2022/08/20 02:23:02;;;;;;;19.37;8.73;;;;;;;24.61;78.10;97589.16;4408404;32;20470;-77
2022/08/20 02:25:32;;;;;;;20.92;9.63;;;;;;;24.07;80.60;97580.84;4408649;32;20448;-77
2022/08/20 02:28:01;;;;;;;20.17;10.05;;;;;;;23.47;84.89;97609.88;4417886;32;20161;-77
2022/08/20 02:30:34;;;;;;;22.37;10.52;;;;;;;24.94;78.87;97626.09;4423482;32;20402;-77
2022/08/20 02:33:03;;;;;;;20.48;9.32;;;;;;;25.50;76.05;97648.97;4423909;32;20123;-77
2022/08/20 02:35:31;;;;;;;21.12;8.73;;;;;;;25.80;73.39;97644.78;4423731;32;20102;-77
2022/08/20 02:37:59;;;;;;;19.98;8.30;;;;;;;26.20;72.00;97640.28;4423534;32;20102;-77
2022/08/20 02:40:27;;;;;;;22.60;9.02;;;;;;;26.45;70.88;97638.34;4423741;32;20160;-78
2022/08/20 02:43:00;;;;;;;20.65;8.77;;;;;;;26.09;72.53;97645.97;4423754;32;20077;-78
2022/08/20 02:45:29;;;;;;;19.42;8.90;;;;;;;26.35;71.76;97649.12;4423312;32;20098;-77
2022/08/20 02:47:57;;;;;;;24.30;9.10;;;;;;;26.13;71.90;97650.72;4423759;32;20108;-78
2022/08/20 02:50:25;;;;;;;19.87;8.45;;;;;;;25.16;75.65;97633.34;4425308;32;20159;-78
2022/08/20 02:52:53;;;;;;;15.82;7.70;;;;;;;24.62;78.00;97617.19;4425990;32;20478;-77
2022/08/20 02:55:21;;;;;;;21.87;7.78;;;;;;;23.48;83.93;97601.00;4425836;32;20111;-77
2022/08/20 02:57:58;;;;;;;18.02;7.78;;;;;;;22.80;87.21;97598.25;4425790;32;20525;-77
2022/08/20 03:00:29;;;;;;;19.05;7.47;;;;;;;23.20;85.77;97586.38;4425953;32;20094;-78
2022/08/20 03:03:08;;;;;;;19.10;7.55;;;;;;;22.86;86.94;97573.97;4413219;32;20101;-77
2022/08/20 03:05:37;;;;;;;19.62;7.53;;;;;;;23.22;85.06;97577.34;4425583;32;20101;-77
2022/08/20 03:08:07;;;;;;;21.58;8.32;;;;;;;23.26;86.16;97568.16;4437585;32;20143;-77
2022/08/20 03:10:35;;;;;;;23.42;8.93;;;;;;;22.62;89.89;97571.97;4425942;32;20129;-77
2022/08/20 03:13:03;;;;;;;22.25;9.68;;;;;;;22.23;92.15;97561.81;4425354;32;20107;-77
2022/08/20 03:15:32;;;;;;;18.55;8.98;;;;;;;23.15;88.87;97559.69;4411950;32;20117;-77
2022/08/20 03:18:00;;;;;;;22.17;8.90;;;;;;;23.06;88.35;97537.78;4425985;32;20112;-77
2022/08/20 03:20:27;;;;;;;23.48;10.45;;;;;;;21.66;96.65;97506.03;4436849;32;20094;-77
2022/08/20 03:22:54;;;;;;;19.30;9.63;;;;;;;21.64;98.18;97500.09;4425741;32;20130;-77
2022/08/20 03:25:21;;;;;;;21.33;9.07;;;;;;;22.29;94.37;97488.56;4425260;32;20102;-77
2022/08/20 03:27:48;;;;;;;14.93;6.97;;;;;;;21.86;97.43;97456.81;4425610;32;20115;-77
2022/08/20 03:30:21;;;;;;;21.60;10.15;;;;;;;20.93;100.00;97413.31;4425955;32;20104;-77
2022/08/20 03:32:48;;;;;;;21.67;10.93;;;;;;;21.16;100.00;97421.66;4425383;32;20082;-78
2022/08/20 03:35:20;;;;;;;20.50;9.90;;;;;;;21.80;99.32;97430.34;4425578;32;20157;-78
2022/08/20 03:37:47;;;;;;;21.52;9.13;;;;;;;21.71;98.74;97423.38;4425842;32;20150;-78
2022/08/20 03:40:29;;;;;;;22.42;9.43;;;;;;;21.22;100.00;97430.72;4425329;32;20382;-78
2022/08/20 03:42:57;;;;;;;24.17;9.60;;;;;;;21.62;100.00;97439.06;4425707;32;20077;-77
2022/08/20 03:45:25;;;;;;;22.00;8.82;;;;;;;22.19;95.50;97463.22;4425493;32;20101;-77
2022/08/20 03:47:54;;;;;;;13.90;6.68;;;;;;;22.16;93.93;97434.63;4411616;32;20165;-77
2022/08/20 03:50:25;;;;;;;15.63;6.32;;;;;;;22.87;90.19;97444.12;4425672;32;20094;-77
2022/08/20 03:52:53;;;;;;;19.52;6.60;;;;;;;23.33;85.14;97463.87;4425660;32;20116;-77
2022/08/20 03:55:21;;;;;;;19.45;5.82;;;;;;;22.83;87.23;97461.16;4411465;32;20106;-77
2022/08/20 03:57:51;;;;;;;14.80;5.78;;;;;;;23.16;84.26;97474.50;4425747;32;20591;-77
2022/08/20 04:00:27;;;;;;;15.52;5.90;;;;;;;23.43;82.24;97474.28;4425274;32;20112;-77
2022/08/20 04:02:56;;;;;;;15.45;5.78;;;;;;;24.08;78.71;97492.87;4425558;32;20073;-77
2022/08/20 04:05:28;;;;;;;25.73;6.12;;;;;;;24.64;76.86;97522.88;4425455;32;20467;-77
2022/08/20 04:07:59;;;;;;;18.85;5.20;;;;;;;25.50;72.63;97531.91;4411661;32;20122;-77
2022/08/20 04:10:29;;;;;;;16.75;5.82;;;;;;;26.27;69.45;97548.69;4425590;32;20640;-77
2022/08/20 04:12:56;;;;;;;17.15;5.65;;;;;;;26.12;70.30;97547.81;4425461;32;20108;-77
2022/08/20 04:15:23;;;;;;;17.70;6.35;;;;;;;25.68;70.77;97537.78;4425175;32;20154;-77
2022/08/20 04:17:51;;;;;;;18.40;5.97;;;;;;;25.22;72.78;97531.56;4425584;32;20511;-78
2022/08/20 04:20:22;;;;;;;17.50;6.20;;;;;;;25.32;73.93;97537.47;4425228;32;20086;-78
2022/08/20 04:22:52;;;;;;;19.08;6.87;;;;;;;26.09;70.72;97537.59;4425116;32;20132;-78
2022/08/20 04:25:30;;;;;;;13.88;5.07;;;;;;;26.62;68.95;97557.88;4425397;32;20165;-78
2022/08/20 04:28:04;;;;;;;16.58;5.70;;;;;;;27.07;65.63;97598.53;4425209;32;20159;-77
2022/08/20 04:30:32;;;;;;;19.17;6.28;;;;;;;25.24;73.85;97611.41;4425192;32;20137;-77
2022/08/20 04:32:59;;;;;;;15.35;5.95;;;;;;;25.34;73.08;97602.31;4411553;32;20436;-77
2022/08/20 04:35:27;;;;;;;16.33;5.75;;;;;;;24.70;76.05;97605.81;4424817;32;20102;-77
2022/08/20 04:38:02;;;;;;;18.27;6.32;;;;;;;25.12;74.32;97612.75;4425441;32;20149;-78
2022/08/20 04:43:14;;;;;;;16.75;5.22;;;;;;;25.80;71.22;97588.44;4424933;32;20349;-78
2022/08/20 04:45:42;;;;;;;15.70;5.50;;;;;;;23.83;78.42;97581.59;4425194;32;20433;-78
2022/08/20 04:48:09;;;;;;;17.87;6.28;;;;;;;24.73;74.79;97598.38;4425349;32;20134;-77
2022/08/20 04:50:43;;;;;;;14.10;5.30;;;;;;;25.56;71.59;97613.94;4425004;32;20338;-78
2022/08/20 04:53:12;;;;;;;14.75;5.82;;;;;;;25.65;71.23;97612.94;4425174;32;20121;-78
2022/08/20 04:55:41;;;;;;;17.02;4.95;;;;;;;26.92;66.12;97643.47;4425134;32;20111;-78
2022/08/20 04:58:20;;;;;;;15.27;5.32;;;;;;;27.44;64.12;97647.97;4411411;32;20124;-78
2022/08/20 05:00:50;;;;;;;15.32;4.82;;;;;;;26.97;65.39;97654.34;4436612;32;20117;-78
2022/08/20 05:03:18;;;;;;;17.90;5.15;;;;;;;26.53;66.98;97659.47;4425019;32;20100;-78
2022/08/20 05:05:45;;;;;;;15.07;4.70;;;;;;;26.33;68.08;97674.94;4424715;32;20446;-78
2022/08/20 05:08:14;;;;;;;14.77;4.45;;;;;;;26.22;67.97;97691.19;4425111;32;20784;-78
2022/08/20 05:10:46;;;;;;;14.40;4.60;;;;;;;26.02;68.94;97679.38;4424892;32;20082;-77
2022/08/20 05:13:13;;;;;;;13.77;4.93;;;;;;;24.24;75.62;97666.88;4424061;32;20097;-77
2022/08/20 05:15:40;;;;;;;14.60;5.00;;;;;;;24.68;73.90;97668.47;4424981;32;20191;-78
2022/08/20 05:18:08;;;;;;;17.02;5.18;;;;;;;24.66;74.86;97667.78;4424771;32;20160;-78
2022/08/20 05:20:41;;;;;;;14.15;4.80;;;;;;;24.49;75.71;97670.41;4424851;32;20441;-78
2022/08/20 05:23:10;;;;;;;15.18;6.07;;;;;;;22.90;83.26;97659.53;4424971;32;20487;-78
2022/08/20 05:25:37;;;;;;;15.70;5.62;;;;;;;22.57;86.36;97652.28;4424247;32;20429;-78
2022/08/20 05:28:11;;;;;;;16.02;5.70;;;;;;;21.81;90.82;97649.97;4424723;32;20105;-78
2022/08/20 05:30:40;;;;;;;12.98;5.47;;;;;;;21.45;94.13;97641.13;4424933;32;20101;-78
2022/08/20 05:33:08;;;;;;;15.05;6.60;;;;;;;21.05;96.10;97640.38;4424466;32;20158;-78
2022/08/20 05:35:38;;;;;;;17.48;6.57;;;;;;;21.59;94.12;97644.13;4424615;32;20090;-78
2022/08/20 05:38:09;;;;;;;21.83;6.95;;;;;;;21.73;93.62;97639.34;4424828;32;20168;-78
2022/08/20 05:40:37;;;;;;;14.35;6.50;;;;;;;22.06;92.48;97644.06;4424335;32;20082;-78
2022/08/20 05:43:04;;;;;;;17.45;5.72;;;;;;;22.75;89.17;97645.19;4424649;32;20129;-78
2022/08/20 05:45:36;;;;;;;17.87;6.20;;;;;;;23.13;85.99;97656.41;4424495;32;20152;-78
2022/08/20 05:48:04;;;;;;;19.37;6.05;;;;;;;25.43;74.83;97658.56;4424707;32;20580;-78
2022/08/20 05:50:32;;;;;;;18.83;6.50;;;;;;;25.53;73.80;97685.63;4424478;32;20424;-78
2022/08/20 05:53:00;;;;;;;15.23;5.60;;;;;;;26.58;69.59;97699.44;4424262;32;20137;-78
2022/08/20 05:55:27;;;;;;;15.57;5.37;;;;;;;26.67;68.75;97713.44;4424328;32;20516;-78
2022/08/20 05:58:01;;;;;;;14.82;5.70;;;;;;;26.29;70.24;97708.03;4424585;32;20105;-78
2022/08/20 06:00:29;;;;;;;13.77;6.10;;;;;;;26.23;71.07;97701.59;4424206;32;20078;-78
2022/08/20 06:05:41;;;;;;;17.58;6.00;;;;;;;27.59;65.11;97720.34;4424421;32;20106;-78
2022/08/20 06:08:09;;;;;;;14.18;5.07;;;;;;;26.63;69.94;97720.09;4424029;32;20148;-78
2022/08/20 06:10:38;;;;;;;14.55;5.43;;;;;;;27.19;67.05;97736.59;4424222;32;20086;-78
2022/08/20 06:13:08;;;;;;;15.32;5.62;;;;;;;27.66;65.02;97747.00;4424277;32;20440;-78
2022/08/20 06:15:39;;;;;;;17.37;5.45;;;;;;;27.75;65.23;97756.50;4423731;32;20405;-78
2022/08/20 06:18:08;;;;;;;13.73;5.22;;;;;;;28.17;63.37;97760.34;4424232;32;20162;-78
2022/08/20 06:20:54;;;;;;;;;;;;;;;28.18;63.11;97760.19;4424136;32;20165;-78
2022/08/20 06:23:22;;;;;;;15.60;5.90;;;;;;;28.36;62.39;97759.81;4424809;32;19975;-78
2022/08/20 06:25:49;;;;;;;16.62;6.40;;;;;;;28.30;62.82;97760.56;4426205;32;20153;-78
2022/08/20 06:28:16;;;;;;;16.37;6.12;;;;;;;28.69;61.18;97762.88;4425638;32;20191;-78
2022/08/20 06:30:43;;;;;;;18.30;6.57;;;;;;;28.25;62.13;97765.56;4412521;32;20488;-78
2022/08/20 06:33:11;;;;;;;14.73;6.53;;;;;;;28.48;62.25;97778.75;4426197;32;20465;-78
2022/08/20 06:35:38;;;;;;;17.30;5.93;;;;;;;28.71;60.28;97781.25;4425723;32;20101;-78
2022/08/20 06:38:05;;;;;;;20.85;6.20;;;;;;;27.92;62.90;97768.59;4426310;32;20090;-78
2022/08/20 06:40:33;;;;;;;18.45;6.60;;;;;;;27.25;65.82;97775.63;4426023;32;20409;-78
2022/08/20 06:43:00;;;;;;;14.70;5.93;;;;;;;27.69;63.74;97778.44;4425713;32;20093;-78
2022/08/20 06:45:31;;;;;;;16.67;5.20;;;;;;;27.58;64.38;97781.50;4425900;32;20444;-78
2022/08/20 06:48:00;;;;;;;19.73;5.45;;;;;;;27.72;63.60;97777.25;4426249;32;20107;-78
2022/08/20 06:50:30;;;;;;;15.48;5.25;;;;;;;27.49;64.09;97774.59;4425708;32;20104;-78
2022/08/20 06:52:58;;;;;;;19.23;5.87;;;;;;;27.19;65.22;97774.50;4426065;32;20129;-78
2022/08/20 06:55:26;;;;;;;18.45;6.40;;;;;;;26.98;66.93;97763.69;4425876;32;20112;-78
2022/08/20 06:57:58;;;;;;;17.77;6.37;;;;;;;26.91;67.33;97771.53;4425847;32;20169;-78
2022/08/20 07:00:26;;;;;;;14.02;5.80;;;;;;;26.77;68.30;97775.75;4425949;32;20138;-77
2022/08/20 07:02:54;;;;;;;20.80;6.40;;;;;;;26.73;68.41;97776.28;4425634;32;20485;-77
2022/08/20 07:05:21;;;;;;;19.48;6.10;;;;;;;27.21;67.15;97775.16;4425724;32;20112;-78
2022/08/20 07:07:49;;;;;;;16.55;5.57;;;;;;;27.62;64.95;97774.81;4426128;32;20429;-77
2022/08/20 07:10:18;;;;;;;15.05;4.95;;;;;;;27.48;66.15;97770.31;4425552;32;20150;-77
2022/08/20 07:12:46;;;;;;;16.42;5.57;;;;;;;27.92;64.34;97757.97;4425884;32;20444;-77
2022/08/20 07:15:13;;;;;;;13.80;4.95;;;;;;;28.04;62.77;97762.81;4425740;32;20154;-77
2022/08/20 07:17:41;;;;;;;16.00;5.62;;;;;;;28.04;62.63;97753.03;4425685;32;20504;-77
2022/08/20 07:20:11;;;;;;;16.00;6.12;;;;;;;28.15;63.06;97749.09;4425841;32;20094;-77
2022/08/20 07:22:38;;;;;;;13.60;5.75;;;;;;;27.83;64.31;97751.09;4425796;32;20403;-77
2022/08/20 07:25:07;;;;;;;17.80;7.22;;;;;;;27.66;65.42;97739.88;4425320;32;20469;-77
2022/08/20 07:27:34;;;;;;;25.52;7.28;;;;;;;25.67;73.77;97727.19;4425661;32;20102;-77
2022/08/20 07:32:49;;;;;;;18.40;6.75;;;;;;;25.33;75.46;97716.84;4425437;32;20082;-77
2022/08/20 07:35:17;;;;;;;20.40;6.90;;;;;;;24.81;78.28;97711.03;4425204;32;20113;-77
2022/08/20 07:37:47;;;;;;;16.62;6.68;;;;;;;24.64;78.59;97704.06;4425749;32;20181;-77
2022/08/20 07:40:22;;;;;;;18.35;6.25;;;;;;;23.80;83.03;97687.28;4425404;32;20173;-77
2022/08/20 07:42:53;;;;;;;17.27;5.90;;;;;;;22.55;89.99;97677.91;4425736;32;20137;-77
2022/08/20 07:45:20;;;;;;;16.92;6.28;;;;;;;21.94;94.16;97660.97;4425279;32;20094;-78
2022/08/20 07:47:48;;;;;;;15.90;6.37;;;;;;;21.74;96.13;97656.75;4425833;32;20157;-77
2022/08/20 07:50:19;;;;;;;19.35;6.15;;;;;;;21.30;100.00;97644.19;4425678;32;20094;-77
2022/08/20 07:52:46;;;;;;;19.08;6.70;;;;;;;21.41;100.00;97637.13;4425404;32;20108;-77
2022/08/20 07:55:15;;;;;;;16.45;6.78;;;;;;;21.47;100.00;97631.28;4425404;32;20146;-77
2022/08/20 07:57:46;;;;;;;18.80;6.68;;;;;;;21.35;100.00;97620.16;4425779;32;20181;-77
2022/08/20 08:00:14;;;;;;;16.90;6.45;;;;;;;21.20;100.00;97606.63;4425287;32;20164;-77
2022/08/20 08:02:41;;;;;;;20.05;7.57;;;;;;;21.04;100.00;97596.72;4425548;32;20096;-77
2022/08/20 08:05:09;;;;;;;23.25;8.90;;;;;;;21.26;100.00;97597.38;4425497;32;20106;-77
2022/08/20 08:07:38;;;;;;;18.55;7.95;;;;;;;21.92;100.00;97605.94;4425313;32;20118;-77
2022/08/20 08:10:11;;;;;;;19.15;7.93;;;;;;;22.88;96.27;97615.94;4436801;32;20117;-77
2022/08/20 08:12:46;;;;;;;20.05;7.82;;;;;;;23.65;91.59;97638.81;4425530;32;20478;-77
2022/08/20 08:15:23;;;;;;;18.00;8.00;;;;;;;23.70;89.73;97654.94;4425137;32;20165;-77
2022/08/20 08:17:51;;;;;;;19.02;7.72;;;;;;;24.14;87.47;97674.09;4425589;32;20137;-77
2022/08/20 08:20:20;;;;;;;17.37;6.85;;;;;;;26.20;78.46;97695.81;4425109;32;20164;-77
2022/08/20 08:22:48;;;;;;;16.83;6.12;;;;;;;27.20;71.57;97701.19;4425482;32;20458;-77
2022/08/20 08:25:16;;;;;;;17.45;6.15;;;;;;;28.24;66.14;97708.22;4411571;32;20102;-77
2022/08/20 08:27:47;;;;;;;16.92;6.37;;;;;;;28.68;64.41;97707.31;4425003;32;20153;-77
2022/08/20 08:30:15;;;;;;;15.65;5.87;;;;;;;28.62;64.73;97700.94;4425574;32;20407;-77
2022/08/20 08:35:31;;;;;;;13.93;4.93;;;;;;;27.95;65.71;97686.00;4425068;32;20461;-78
2022/08/20 08:38:01;;;;;;;10.25;4.78;;;;;;;29.01;60.72;97683.75;4425487;32;20142;-77
2022/08/20 08:40:29;;;;;;;17.85;4.72;;;;;;;28.90;61.01;97678.97;4425369;32;20104;-77
2022/08/20 08:43:00;;;;;;;14.77;4.93;;;;;;;28.20;64.03;97680.44;4424886;32;20074;-77
2022/08/20 08:45:42;;;;;;;13.52;5.05;;;;;;;27.38;66.61;97673.34;4425138;32;20153;-78
2022/08/20 08:48:12;;;;;;;12.88;4.35;;;;;;;28.34;62.60;97686.72;4424181;32;20098;-78
2022/08/20 08:50:47;;;;;;;12.00;4.50;;;;;;;28.95;59.37;97695.16;4412331;32;20146;-78
2022/08/20 08:53:25;;;;;;;11.85;3.85;;;;;;;28.75;60.53;97690.44;4425302;32;20445;-78
2022/08/20 08:55:53;;;;;;;11.95;4.00;;;;;;;28.61;59.28;97691.34;4424981;32;20441;-78
2022/08/20 08:58:20;;;;;;;15.80;3.95;;;;;;;28.63;60.42;97693.81;4425235;32;20145;-78
2022/08/20 09:00:47;;;;;;;13.70;4.20;;;;;;;29.33;55.77;97683.22;4425196;32;20144;-78
2022/08/20 09:03:31;;;;;;;13.60;3.92;;;;;;;29.53;55.62;97677.25;4412142;32;20097;-78
2022/08/20 09:05:59;;;;;;;11.02;3.85;;;;;;;29.76;53.87;97679.62;4411439;32;20110;-78
2022/08/20 09:08:31;;;;;;;12.93;3.70;;;;;;;29.99;54.53;97684.66;4425152;32;20093;-78
2022/08/20 09:11:04;;;;;;;11.43;3.97;;;;;;;29.98;54.18;97691.81;4410920;32;20138;-78
2022/08/20 09:13:31;;;;;;;13.80;4.55;;;;;;;29.82;55.27;97689.50;4424970;32;20501;-78
2022/08/20 09:15:59;;;;;;;11.77;4.00;;;;;;;29.21;56.41;97684.75;4425044;32;20105;-77
2022/08/20 09:18:26;;;;;;;10.52;3.85;;;;;;;29.49;56.66;97690.13;4424781;32;20116;-78
2022/08/20 09:20:53;;;;;;;14.15;4.47;;;;;;;29.49;55.48;97699.94;4424949;32;20097;-78
2022/08/20 09:23:20;;;;;;;15.70;4.30;;;;;;;29.26;57.23;97695.66;4424525;32;20448;-78
2022/08/20 09:25:47;;;;;;;14.32;4.20;;;;;;;29.47;56.09;97694.78;4424993;32;20734;-78
2022/08/20 09:28:14;;;;;;;17.98;4.87;;;;;;;29.68;55.14;97688.62;4424629;32;20167;-78
2022/08/20 09:30:41;;;;;;;12.35;4.37;;;;;;;28.68;58.46;97692.22;4424568;32;20090;-78
2022/08/20 09:33:10;;;;;;;12.05;4.20;;;;;;;27.69;62.69;97684.84;4424822;32;20078;-78
2022/08/20 09:35:38;;;;;;;13.68;5.07;;;;;;;27.76;63.15;97681.28;4424636;32;20102;-78
2022/08/20 09:38:06;;;;;;;15.38;5.55;;;;;;;26.38;69.27;97669.97;4424493;32;20440;-78
2022/08/20 09:40:33;;;;;;;16.40;5.45;;;;;;;24.37;79.40;97658.53;4424761;32;20678;-78
2022/08/20 09:43:02;;;;;;;14.63;5.00;;;;;;;23.81;84.16;97654.66;4424563;32;20141;-78
2022/08/20 09:45:29;;;;;;;14.70;5.18;;;;;;;24.15;82.31;97651.19;4424296;32;20141;-78
2022/08/20 09:47:56;;;;;;;16.23;5.30;;;;;;;25.59;76.33;97660.34;4424790;32;20101;-78
2022/08/20 09:50:30;;;;;;;14.30;5.10;;;;;;;26.03;74.52;97663.34;4424701;32;20433;-78
2022/08/20 09:52:58;;;;;;;15.02;5.30;;;;;;;26.59;72.94;97679.13;4424291;32;20470;-78
2022/08/20 09:55:37;;;;;;;18.95;5.45;;;;;;;27.69;67.23;97675.06;4424427;32;20102;-78
2022/08/20 09:58:22;;;;;;;13.60;5.40;;;;;;;27.45;68.82;97680.59;4411323;32;20383;-78
2022/08/20 10:00:49;;;;;;;10.00;4.40;;;;;;;29.56;60.90;97676.84;4426325;32;20104;-78
2022/08/20 10:03:16;;;;;;;12.10;4.78;;;;;;;29.56;59.55;97680.38;4412548;32;20414;-78
2022/08/20 10:05:43;;;;;;;12.50;4.75;;;;;;;29.94;59.32;97683.44;4425942;32;20134;-78
2022/08/20 10:08:10;;;;;;;14.70;4.90;;;;;;;29.59;60.18;97674.66;4426483;32;20101;-78
2022/08/20 10:10:37;;;;;;;16.10;5.05;;;;;;;29.29;60.48;97668.69;4426417;32;20090;-78
2022/08/20 10:13:04;;;;;;;15.80;5.68;;;;;;;29.38;60.51;97680.00;4425810;32;20403;-78
2022/08/20 10:15:32;;;;;;;13.65;5.60;;;;;;;29.78;58.06;97683.75;4426211;32;20120;-78
2022/08/20 10:18:04;;;;;;;12.93;5.12;;;;;;;28.77;60.40;97674.31;4426431;32;20108;-78
2022/08/20 10:20:31;;;;;;;12.40;4.87;;;;;;;28.44;63.42;97677.47;4425953;32;20156;-78
2022/08/20 10:22:58;;;;;;;12.77;6.10;;;;;;;27.41;67.23;97671.34;4426194;32;20074;-78
2022/08/20 10:25:25;;;;;;;12.25;5.70;;;;;;;27.46;68.51;97684.87;4412221;32;20149;-78
2022/08/20 10:27:52;;;;;;;14.70;5.00;;;;;;;28.03;66.36;97685.09;4425862;32;20170;-78
2022/08/20 10:30:19;;;;;;;14.43;5.60;;;;;;;27.30;68.90;97683.22;4426262;32;20145;-78
2022/08/20 10:32:47;;;;;;;16.85;5.97;;;;;;;27.09;68.74;97676.75;4426088;32;20101;-78
2022/08/20 10:35:14;;;;;;;15.85;5.62;;;;;;;26.65;72.41;97694.28;4425690;32;20173;-78
2022/08/20 10:37:41;;;;;;;14.13;5.55;;;;;;;26.14;74.64;97686.75;4426241;32;20160;-78
2022/08/20 10:40:08;;;;;;;15.30;5.87;;;;;;;26.13;73.76;97693.03;4426176;32;20085;-78
2022/08/20 10:42:35;;;;;;;14.55;6.43;;;;;;;25.55;75.84;97685.44;4425721;32;20086;-78
2022/08/20 10:45:10;;;;;;;15.88;6.20;;;;;;;26.22;74.97;97694.66;4426116;32;20102;-78
2022/08/20 10:47:37;;;;;;;16.50;6.53;;;;;;;25.57;76.91;97694.84;4425889;32;20688;-78
2022/08/20 10:50:07;;;;;;;16.87;6.55;;;;;;;24.93;78.87;97698.34;4425990;32;20107;-78
2022/08/20 10:52:34;;;;;;;17.10;6.90;;;;;;;24.38;81.10;97691.81;4426006;32;20098;-77
2022/08/20 10:55:03;;;;;;;15.75;7.22;;;;;;;24.75;81.85;97698.47;4425664;32;20155;-77
2022/08/20 10:57:30;;;;;;;18.17;7.60;;;;;;;24.85;80.91;97695.69;4426101;32;20128;-77
2022/08/20 10:59:58;;;;;;;18.73;7.87;;;;;;;24.88;82.87;97700.63;4426059;32;20078;-77
2022/08/20 11:02:26;;;;;;;17.95;7.60;;;;;;;24.97;80.99;97700.47;4425496;32;20082;-78
2022/08/20 11:04:54;;;;;;;19.80;8.18;;;;;;;25.15;78.50;97707.44;4425975;32;20098;-78
2022/08/20 11:07:29;;;;;;;16.73;7.50;;;;;;;24.69;82.90;97705.25;4426038;32;20157;-78
2022/08/20 11:10:17;;;;;;;14.57;7.05;;;;;;;25.59;77.77;97705.25;4425085;32;20094;-78
2022/08/20 11:12:44;;;;;;;14.35;5.25;;;;;;;25.49;78.12;97701.97;4425920;32;20078;-78
2022/08/20 11:15:12;;;;;;;17.17;7.62;;;;;;;24.19;80.64;97700.78;4425725;32;20168;-78
2022/08/20 11:17:41;;;;;;;18.95;7.55;;;;;;;24.78;78.66;97698.16;4425648;32;20153;-78
2022/08/20 11:20:10;;;;;;;16.52;6.75;;;;;;;24.83;79.98;97697.66;4425965;32;20815;-78
2022/08/20 11:22:37;;;;;;;16.48;7.05;;;;;;;24.40;79.72;97699.56;4425241;32;20100;-78
2022/08/20 11:25:05;;;;;;;16.05;7.45;;;;;;;25.55;76.52;97694.19;4425879;32;20123;-78
2022/08/20 11:27:38;;;;;;;17.60;6.85;;;;;;;26.55;72.19;97704.25;4425740;32;20488;-78
2022/08/20 11:30:08;;;;;;;16.17;7.03;;;;;;;25.83;72.80;97697.28;4425548;32;20144;-78
2022/08/20 11:32:35;;;;;;;18.90;7.10;;;;;;;25.20;75.46;97697.19;4425606;32;20106;-78
2022/08/20 11:35:02;;;;;;;14.18;6.47;;;;;;;25.39;75.42;97697.69;4425726;32;20146;-78
2022/08/20 11:37:50;;;;;;;18.42;7.78;;;;;;;25.13;74.86;97696.22;4425391;32;20139;-78
2022/08/20 11:40:18;;;;;;;15.85;7.55;;;;;;;25.17;76.22;97708.91;4425831;32;20090;-78
2022/08/20 11:42:46;;;;;;;14.13;6.35;;;;;;;25.17;77.11;97710.72;4425529;32;20078;-78
2022/08/20 11:45:33;;;;;;;15.20;7.45;;;;;;;24.80;77.31;97707.56;4425218;32;20152;-78
2022/08/20 11:48:05;;;;;;;19.23;7.35;;;;;;;24.35;79.00;97705.34;4425867;32;20513;-77